Time;durP1;ratioP1;P1;durP2;ratioP2;P2;SDS_P1;SDS_P2;PMS_P1;PMS_P2;Temp;Humidity;BMP_temperature;BMP_pressure;BME280_temperature;BME280_humidity;BME280_pressure;Samples;Min_cycle;Max_cycle;Signal;HPM_P1;HPM_P2
2024/04/07 00:00:51;;;;;;;;;;;24.60;42.00;;;;;;5072284;28;19925;-61
2024/04/07 00:03:17;;;;;;;;;;;24.60;42.00;;;;;;5071654;28;19924;-62
2024/04/07 00:05:44;;;;;;;;;;;24.60;42.00;;;;;;5072087;28;19924;-61
2024/04/07 00:08:10;;;;;;;;;;;24.60;42.00;;;;;;5072046;28;19928;-62
2024/04/07 00:10:36;;;;;;;;;;;24.60;42.00;;;;;;5071991;28;19932;-62
2024/04/07 00:13:04;;;;;;;;;;;24.60;42.00;;;;;;5071689;28;19954;-61
2024/04/07 00:15:30;;;;;;;;;;;24.60;42.00;;;;;;5071809;28;19925;-61
2024/04/07 00:17:56;;;;;;;;;;;24.60;42.00;;;;;;5071945;28;19925;-61
2024/04/07 00:20:22;;;;;;;;;;;24.60;42.00;;;;;;5055247;28;20297;-61
2024/04/07 00:22:47;;;;;;;;;;;24.60;42.00;;;;;;5071509;28;20353;-61
2024/04/07 00:25:16;;;;;;;;;;;24.50;41.90;;;;;;5054327;28;19928;-61
2024/04/07 00:27:42;;;;;;;;;;;24.50;42.00;;;;;;5051647;28;19929;-61
2024/04/07 00:30:08;;;;;;;;;;;24.50;41.90;;;;;;5051769;28;19925;-61
2024/04/07 00:32:34;;;;;;;;;;;24.50;42.00;;;;;;5051792;28;19932;-62
2024/04/07 00:35:00;;;;;;;;;;;24.50;41.90;;;;;;5034894;28;20460;-61
2024/04/07 00:37:28;;;;;;;;;;;24.50;42.00;;;;;;5035171;28;19975;-61
2024/04/07 00:39:57;;;;;;;;;;;24.50;42.00;;;;;;5051608;28;19932;-61
2024/04/07 00:42:23;;;;;;;;;;;24.60;42.00;;;;;;5053119;28;19932;-62
2024/04/07 00:44:49;;;;;;;;;;;24.50;42.00;;;;;;5055206;28;19932;-61
2024/04/07 00:47:15;;;;;;;;;;;24.50;42.00;;;;;;5055027;28;20396;-61
2024/04/07 00:49:42;;;;;;;;;;;24.50;42.00;;;;;;5055360;28;19924;-61
2024/04/07 00:52:08;;;;;;;;;;;24.50;42.10;;;;;;5054969;28;19925;-61
2024/04/07 00:54:34;;;;;;;;;;;24.50;42.10;;;;;;5038489;28;19932;-62
2024/04/07 00:57:00;;;;;;;;;;;24.50;42.20;;;;;;5038484;28;19924;-61
2024/04/07 00:59:26;;;;;;;;;;;24.50;42.20;;;;;;5054789;28;19924;-61
2024/04/07 01:01:52;;;;;;;;;;;24.50;42.20;;;;;;5054741;28;19925;-61
2024/04/07 01:04:18;;;;;;;;;;;24.50;42.20;;;;;;5054553;28;19925;-61
2024/04/07 01:06:44;;;;;;;;;;;24.40;42.20;;;;;;5054615;28;19925;-61
2024/04/07 01:09:09;;;;;;;;;;;24.50;42.20;;;;;;5055135;28;19924;-61
2024/04/07 01:11:35;;;;;;;;;;;24.40;42.20;;;;;;5054545;28;19925;-62
2024/04/07 01:14:02;;;;;;;;;;;24.50;42.30;;;;;;5055136;28;19940;-61
2024/04/07 01:16:28;;;;;;;;;;;24.50;42.30;;;;;;5054594;28;19978;-63
2024/04/07 01:18:54;;;;;;;;;;;24.40;42.20;;;;;;5054475;28;19932;-61
2024/04/07 01:21:19;;;;;;;;;;;24.50;42.30;;;;;;5054368;28;19924;-61
2024/04/07 01:23:45;;;;;;;;;;;24.40;42.20;;;;;;5054318;28;19936;-61
2024/04/07 01:26:11;;;;;;;;;;;24.40;42.20;;;;;;5054034;28;19925;-61
2024/04/07 01:28:37;;;;;;;;;;;24.40;42.20;;;;;;5054584;28;19925;-61
2024/04/07 01:31:03;;;;;;;;;;;24.40;42.30;;;;;;5054368;28;20293;-61
2024/04/07 01:33:29;;;;;;;;;;;24.40;42.20;;;;;;5054495;28;19964;-61
2024/04/07 01:35:54;;;;;;;;;;;24.40;42.30;;;;;;5054220;28;20301;-61
2024/04/07 01:38:20;;;;;;;;;;;24.40;42.30;;;;;;5054299;28;20015;-61
2024/04/07 01:40:47;;;;;;;;;;;24.40;42.30;;;;;;5054245;28;19951;-61
2024/04/07 01:43:13;;;;;;;;;;;24.40;42.30;;;;;;5054041;28;19924;-61
2024/04/07 01:45:39;;;;;;;;;;;24.40;42.30;;;;;;5053906;28;19978;-62
2024/04/07 01:48:05;;;;;;;;;;;24.40;42.30;;;;;;5054044;28;19924;-61
2024/04/07 01:50:31;;;;;;;;;;;24.40;42.30;;;;;;5053937;28;20374;-61
2024/04/07 01:52:57;;;;;;;;;;;24.40;42.30;;;;;;5037223;28;19978;-61
2024/04/07 01:55:23;;;;;;;;;;;24.40;42.30;;;;;;5053207;28;20011;-61
2024/04/07 01:57:49;;;;;;;;;;;24.30;42.30;;;;;;5053684;28;19925;-61
2024/04/07 02:00:14;;;;;;;;;;;24.30;42.30;;;;;;5053910;28;19932;-61
2024/04/07 02:02:40;;;;;;;;;;;24.40;42.40;;;;;;5053588;28;19925;-61
2024/04/07 02:05:06;;;;;;;;;;;24.30;42.40;;;;;;5053587;28;20204;-61
2024/04/07 02:07:35;;;;;;;;;;;24.30;42.40;;;;;;5053874;28;20015;-61
2024/04/07 02:10:02;;;;;;;;;;;24.30;42.40;;;;;;5053843;28;19932;-61
2024/04/07 02:12:28;;;;;;;;;;;24.30;42.40;;;;;;5053843;28;19932;-61
2024/04/07 02:14:54;;;;;;;;;;;24.30;42.50;;;;;;5053448;28;19925;-61
2024/04/07 02:17:20;;;;;;;;;;;24.30;42.50;;;;;;5053628;28;19932;-61
2024/04/07 02:19:51;;;;;;;;;;;24.30;42.50;;;;;;5053387;28;19929;-61
2024/04/07 02:22:18;;;;;;;;;;;24.30;42.50;;;;;;5053477;28;19986;-61
2024/04/07 02:24:44;;;;;;;;;;;24.30;42.40;;;;;;5053235;28;19924;-61
2024/04/07 02:27:10;;;;;;;;;;;24.30;42.50;;;;;;5053325;28;20340;-61
2024/04/07 02:29:36;;;;;;;;;;;24.30;42.40;;;;;;5053136;28;19925;-61
2024/04/07 02:32:01;;;;;;;;;;;24.30;42.50;;;;;;5053443;28;19936;-61
2024/04/07 02:34:27;;;;;;;;;;;24.30;42.50;;;;;;5053371;28;19925;-61
2024/04/07 02:36:53;;;;;;;;;;;24.30;42.50;;;;;;5053123;28;20370;-61
2024/04/07 02:39:19;;;;;;;;;;;24.30;42.50;;;;;;5053385;28;19948;-61
2024/04/07 02:41:46;;;;;;;;;;;24.30;42.50;;;;;;5053274;28;19925;-61
2024/04/07 02:44:12;;;;;;;;;;;24.30;42.50;;;;;;5052872;28;19936;-61
2024/04/07 02:49:23;;;;;;;;;;;24.30;42.50;;;;;;5052706;28;19932;-61
2024/04/07 02:51:49;;;;;;;;;;;24.30;42.50;;;;;;5052926;28;19925;-62
2024/04/07 02:54:15;;;;;;;;;;;24.30;42.50;;;;;;5052478;28;20396;-61
2024/04/07 02:56:41;;;;;;;;;;;24.30;42.50;;;;;;5036092;28;19932;-61
2024/04/07 02:59:06;;;;;;;;;;;24.30;42.50;;;;;;5062508;28;19928;-61
2024/04/07 03:01:32;;;;;;;;;;;24.30;42.50;;;;;;5072593;28;19924;-61
2024/04/07 03:03:58;;;;;;;;;;;24.30;42.50;;;;;;5072765;28;19989;-61
2024/04/07 03:06:24;;;;;;;;;;;24.30;42.50;;;;;;5071515;28;19974;-61
2024/04/07 03:08:51;;;;;;;;;;;24.30;42.50;;;;;;5072248;28;20444;-62
2024/04/07 03:11:17;;;;;;;;;;;24.30;42.50;;;;;;5072768;28;19925;-61
2024/04/07 03:13:43;;;;;;;;;;;24.30;42.50;;;;;;5072252;28;19932;-61
2024/04/07 03:16:10;;;;;;;;;;;24.20;42.50;;;;;;5055696;28;19924;-61
2024/04/07 03:18:36;;;;;;;;;;;24.20;42.50;;;;;;5072765;28;19924;-61
2024/04/07 03:21:03;;;;;;;;;;;24.30;42.60;;;;;;5072347;28;20374;-61
2024/04/07 03:23:29;;;;;;;;;;;24.20;42.50;;;;;;5072573;28;19925;-61
2024/04/07 03:25:55;;;;;;;;;;;24.20;42.50;;;;;;5055208;28;19978;-62
2024/04/07 03:28:21;;;;;;;;;;;24.20;42.50;;;;;;5072079;28;19928;-62
2024/04/07 03:30:47;;;;;;;;;;;24.20;42.50;;;;;;5072433;28;19924;-62
2024/04/07 03:33:14;;;;;;;;;;;24.20;42.50;;;;;;5055690;28;19931;-62
2024/04/07 03:35:40;;;;;;;;;;;24.20;42.50;;;;;;5072073;28;19925;-61
2024/04/07 03:38:05;;;;;;;;;;;24.20;42.50;;;;;;5072543;28;19928;-61
2024/04/07 03:40:31;;;;;;;;;;;24.20;42.50;;;;;;5072496;28;19925;-62
2024/04/07 03:42:57;;;;;;;;;;;24.20;42.50;;;;;;5072140;28;19925;-62
2024/04/07 03:45:23;;;;;;;;;;;24.20;42.50;;;;;;5071996;28;19970;-61
2024/04/07 03:47:49;;;;;;;;;;;24.20;42.50;;;;;;5055299;28;19925;-61
2024/04/07 03:50:15;;;;;;;;;;;24.20;42.50;;;;;;5072339;28;19978;-62
2024/04/07 03:52:41;;;;;;;;;;;24.20;42.50;;;;;;5071784;28;19924;-61
2024/04/07 03:55:06;;;;;;;;;;;24.20;42.50;;;;;;5071892;28;19925;-62
2024/04/07 03:57:32;;;;;;;;;;;24.20;42.60;;;;;;5052678;28;19929;-62
2024/04/07 03:59:58;;;;;;;;;;;24.20;42.60;;;;;;5052107;28;20310;-62
2024/04/07 04:02:28;;;;;;;;;;;24.20;42.60;;;;;;5052058;28;20337;-62
2024/04/07 04:05:01;;;;;;;;;;;24.10;42.50;;;;;;5052131;28;19940;-62
2024/04/07 04:07:27;;;;;;;;;;;24.20;42.60;;;;;;5051949;28;19925;-62
2024/04/07 04:09:57;;;;;;;;;;;24.10;42.50;;;;;;5051837;28;20055;-62
2024/04/07 04:12:23;;;;;;;;;;;24.10;42.60;;;;;;5051645;28;19951;-62
2024/04/07 04:14:56;;;;;;;;;;;24.10;42.60;;;;;;5052043;28;19970;-62
2024/04/07 04:17:22;;;;;;;;;;;24.10;42.60;;;;;;5053313;28;19955;-62
2024/04/07 04:19:49;;;;;;;;;;;24.10;42.60;;;;;;5055842;28;19925;-62
2024/04/07 04:22:15;;;;;;;;;;;24.10;42.60;;;;;;5055442;28;19940;-62
2024/04/07 04:24:41;;;;;;;;;;;24.10;42.60;;;;;;5055417;28;19924;-62
2024/04/07 04:27:07;;;;;;;;;;;24.10;42.60;;;;;;5055305;28;19925;-62
2024/04/07 04:29:33;;;;;;;;;;;24.10;42.60;;;;;;5038844;28;19929;-62
2024/04/07 04:31:59;;;;;;;;;;;24.10;42.60;;;;;;5055495;28;19932;-63
2024/04/07 04:34:25;;;;;;;;;;;24.10;42.60;;;;;;5055449;28;19929;-61
2024/04/07 04:36:52;;;;;;;;;;;24.10;42.50;;;;;;5055155;28;19932;-61
2024/04/07 04:39:18;;;;;;;;;;;24.10;42.40;;;;;;5055774;28;19975;-62
2024/04/07 04:41:48;;;;;;;;;;;24.20;42.40;;;;;;5055549;28;19933;-62
2024/04/07 04:44:17;;;;;;;;;;;24.20;42.20;;;;;;5039338;28;19925;-62
2024/04/07 04:46:47;;;;;;;;;;;24.30;42.00;;;;;;5055268;28;19928;-61
2024/04/07 04:49:13;;;;;;;;;;;24.30;41.90;;;;;;5064587;28;19951;-62
2024/04/07 04:51:39;;;;;;;;;;;24.30;41.70;;;;;;5075135;28;19948;-61
2024/04/07 04:54:05;;;;;;;;;;;24.30;41.60;;;;;;5074742;28;19924;-62
2024/04/07 04:56:31;;;;;;;;;;;24.30;41.50;;;;;;5075048;28;19924;-62
2024/04/07 04:58:57;;;;;;;;;;;24.30;41.40;;;;;;5075338;28;19931;-62
2024/04/07 05:01:23;;;;;;;;;;;24.30;41.40;;;;;;5075490;28;20262;-61
2024/04/07 05:03:49;;;;;;;;;;;24.30;41.40;;;;;;5057874;28;19932;-62
2024/04/07 05:06:16;;;;;;;;;;;24.30;41.40;;;;;;5053525;28;19947;-62
2024/04/07 05:08:43;;;;;;;;;;;24.30;41.90;;;;;;5054359;28;19929;-61
2024/04/07 05:11:09;;;;;;;;;;;24.30;41.30;;;;;;5039046;28;19925;-62
2024/04/07 05:13:35;;;;;;;;;;;24.40;41.30;;;;;;5054730;28;19924;-62
2024/04/07 05:16:04;;;;;;;;;;;24.30;41.20;;;;;;5054620;28;19932;-62
2024/04/07 05:18:30;;;;;;;;;;;24.40;41.20;;;;;;5054881;28;19932;-62
2024/04/07 05:21:00;;;;;;;;;;;24.40;41.20;;;;;;5054957;28;19925;-62
2024/04/07 05:23:26;;;;;;;;;;;24.40;41.20;;;;;;5054747;28;20302;-62
2024/04/07 05:25:52;;;;;;;;;;;24.50;41.10;;;;;;5054361;28;19928;-62
2024/04/07 05:28:18;;;;;;;;;;;24.40;41.00;;;;;;5053440;28;19925;-62
2024/04/07 05:30:44;;;;;;;;;;;24.50;41.10;;;;;;5053804;28;19950;-61
2024/04/07 05:33:10;;;;;;;;;;;24.50;41.00;;;;;;5054067;28;19931;-62
2024/04/07 05:35:36;;;;;;;;;;;24.50;40.90;;;;;;5054284;28;19925;-62
2024/04/07 05:38:02;;;;;;;;;;;24.50;41.50;;;;;;5054355;28;19925;-62
2024/04/07 05:40:28;;;;;;;;;;;24.60;40.90;;;;;;5054247;28;19932;-62
2024/04/07 05:42:54;;;;;;;;;;;24.60;40.80;;;;;;5053802;28;19932;-59
2024/04/07 05:45:20;;;;;;;;;;;24.60;40.80;;;;;;5054229;28;19924;-60
2024/04/07 05:47:50;;;;;;;;;;;24.70;40.80;;;;;;5054211;28;20298;-60
2024/04/07 05:50:16;;;;;;;;;;;24.70;40.80;;;;;;5053885;28;19932;-59
2024/04/07 05:52:43;;;;;;;;;;;24.70;40.70;;;;;;5054129;28;20298;-59
2024/04/07 05:55:09;;;;;;;;;;;24.80;40.70;;;;;;5053682;28;19932;-59
2024/04/07 05:57:38;;;;;;;;;;;24.80;40.70;;;;;;5053895;28;19924;-59
2024/04/07 06:00:08;;;;;;;;;;;24.80;40.60;;;;;;5053967;28;19925;-59
2024/04/07 06:02:34;;;;;;;;;;;24.90;40.60;;;;;;5037125;28;19924;-59
2024/04/07 06:05:00;;;;;;;;;;;24.90;40.60;;;;;;5053533;28;19924;-59
2024/04/07 06:07:26;;;;;;;;;;;24.90;40.60;;;;;;5037131;28;19925;-59
2024/04/07 06:09:51;;;;;;;;;;;24.90;40.60;;;;;;5053661;28;19932;-60
2024/04/07 06:12:17;;;;;;;;;;;24.90;40.60;;;;;;5053547;28;19924;-60
2024/04/07 06:14:43;;;;;;;;;;;24.90;40.60;;;;;;5053741;28;20328;-60
2024/04/07 06:17:09;;;;;;;;;;;25.00;40.60;;;;;;5053799;28;19925;-59
2024/04/07 06:19:35;;;;;;;;;;;25.00;40.60;;;;;;5020207;28;20441;-60
2024/04/07 06:22:01;;;;;;;;;;;25.00;40.60;;;;;;5053526;28;19970;-59
2024/04/07 06:24:27;;;;;;;;;;;25.10;40.60;;;;;;5053547;28;20375;-60
2024/04/07 06:26:53;;;;;;;;;;;25.10;40.50;;;;;;5053446;28;20369;-59
2024/04/07 06:29:19;;;;;;;;;;;25.10;40.50;;;;;;5053670;28;19925;-60
2024/04/07 06:31:44;;;;;;;;;;;25.10;40.40;;;;;;5053343;28;19925;-60
2024/04/07 06:34:10;;;;;;;;;;;25.20;40.40;;;;;;5053163;28;20396;-59
2024/04/07 06:36:39;;;;;;;;;;;25.20;40.40;;;;;;5053112;28;19928;-59
2024/04/07 06:39:05;;;;;;;;;;;25.30;40.50;;;;;;5052539;28;19925;-59
2024/04/07 06:41:31;;;;;;;;;;;25.30;40.50;;;;;;5053041;28;20055;-60
2024/04/07 06:43:56;;;;;;;;;;;25.30;40.40;;;;;;5052872;28;19932;-60
2024/04/07 06:46:22;;;;;;;;;;;25.40;40.40;;;;;;5052842;28;19932;-60
2024/04/07 06:48:48;;;;;;;;;;;25.40;40.40;;;;;;5053170;28;19925;-59
2024/04/07 06:51:14;;;;;;;;;;;25.40;40.50;;;;;;5053204;28;19931;-59
2024/04/07 06:53:40;;;;;;;;;;;25.40;40.50;;;;;;5052973;28;20366;-60
2024/04/07 06:56:07;;;;;;;;;;;25.40;40.50;;;;;;5052373;28;20012;-61
2024/04/07 06:58:32;;;;;;;;;;;25.40;40.50;;;;;;5033551;28;20390;-62
2024/04/07 07:01:00;;;;;;;;;;;25.40;40.50;;;;;;5050584;28;19925;-61
2024/04/07 07:03:26;;;;;;;;;;;25.40;40.50;;;;;;5036167;28;19928;-62
2024/04/07 07:05:52;;;;;;;;;;;25.40;40.50;;;;;;5052767;28;20022;-61
2024/04/07 07:08:18;;;;;;;;;;;25.50;40.50;;;;;;5052631;28;19925;-61
2024/04/07 07:10:59;;;;;;;;;;;25.50;40.40;;;;;;5052474;28;19925;-61
2024/04/07 07:13:26;;;;;;;;;;;25.50;40.40;;;;;;5052280;28;19928;-63
2024/04/07 07:15:51;;;;;;;;;;;25.50;40.40;;;;;;5052431;28;20362;-61
2024/04/07 07:18:18;;;;;;;;;;;25.50;40.30;;;;;;5052182;28;19931;-61
2024/04/07 07:20:44;;;;;;;;;;;25.60;40.40;;;;;;5052496;28;19925;-61
2024/04/07 07:23:10;;;;;;;;;;;25.60;40.30;;;;;;5052467;28;19928;-61
2024/04/07 07:25:36;;;;;;;;;;;25.60;40.20;;;;;;5052563;28;19925;-62
2024/04/07 07:28:02;;;;;;;;;;;25.60;40.20;;;;;;5052081;28;20566;-62
2024/04/07 07:30:27;;;;;;;;;;;25.70;40.20;;;;;;5035763;28;19964;-63
2024/04/07 07:32:53;;;;;;;;;;;25.70;40.10;;;;;;5051922;28;20385;-62
2024/04/07 07:35:19;;;;;;;;;;;25.70;40.10;;;;;;5052221;28;19931;-62
2024/04/07 07:37:45;;;;;;;;;;;25.70;40.50;;;;;;5052241;28;20016;-63
2024/04/07 07:40:11;;;;;;;;;;;25.70;40.00;;;;;;5052075;28;20386;-62
2024/04/07 07:42:37;;;;;;;;;;;25.80;39.90;;;;;;5051941;28;19932;-63
2024/04/07 07:45:04;;;;;;;;;;;25.80;39.80;;;;;;5052301;28;19932;-62
2024/04/07 07:47:29;;;;;;;;;;;25.90;39.90;;;;;;5052238;28;19947;-62
2024/04/07 07:49:57;;;;;;;;;;;25.90;39.80;;;;;;5051834;28;20438;-62
2024/04/07 07:52:23;;;;;;;;;;;25.90;39.70;;;;;;5055190;28;19933;-62
2024/04/07 07:54:49;;;;;;;;;;;26.00;39.70;;;;;;5058944;28;20242;-62
2024/04/07 07:57:15;;;;;;;;;;;26.00;40.20;;;;;;5057424;28;20011;-62
2024/04/07 07:59:41;;;;;;;;;;;26.10;39.70;;;;;;5057334;28;19936;-63
2024/04/07 08:02:07;;;;;;;;;;;26.10;39.60;;;;;;5058384;28;20004;-62
2024/04/07 08:04:33;;;;;;;;;;;26.10;39.60;;;;;;5058556;28;20003;-63
2024/04/07 08:06:59;;;;;;;;;;;26.10;39.50;;;;;;5058851;28;20316;-62
2024/04/07 08:09:25;;;;;;;;;;;26.10;39.40;;;;;;5041884;28;20037;-62
2024/04/07 08:11:51;;;;;;;;;;;26.20;39.40;;;;;;5058501;28;19970;-62
2024/04/07 08:14:16;;;;;;;;;;;26.20;39.40;;;;;;5058869;28;19925;-62
2024/04/07 08:16:42;;;;;;;;;;;26.20;39.30;;;;;;5058012;28;20370;-63
2024/04/07 08:19:08;;;;;;;;;;;26.20;39.30;;;;;;5058422;28;19936;-62
2024/04/07 08:21:35;;;;;;;;;;;26.30;39.40;;;;;;5058551;28;19931;-63
2024/04/07 08:24:01;;;;;;;;;;;26.30;39.30;;;;;;5058136;28;19925;-63
2024/04/07 08:26:26;;;;;;;;;;;26.30;39.30;;;;;;5058375;28;20019;-63
2024/04/07 08:28:52;;;;;;;;;;;26.40;39.30;;;;;;5058167;28;20366;-63
2024/04/07 08:31:18;;;;;;;;;;;26.40;39.30;;;;;;5058077;28;19968;-63
2024/04/07 08:33:44;;;;;;;;;;;26.40;39.20;;;;;;5041592;28;19970;-63
2024/04/07 08:36:10;;;;;;;;;;;26.50;39.20;;;;;;5060392;28;19935;-63
2024/04/07 08:38:35;;;;;;;;;;;26.50;39.10;;;;;;5078082;28;19924;-62
2024/04/07 08:41:07;;;;;;;;;;;26.50;39.10;;;;;;5078561;28;19924;-62
2024/04/07 08:43:33;;;;;;;;;;;26.60;39.20;;;;;;5078330;28;19925;-62
2024/04/07 08:45:59;;;;;;;;;;;26.60;39.10;;;;;;5078443;28;20381;-63
2024/04/07 08:48:26;;;;;;;;;;;26.60;39.10;;;;;;5078408;28;19929;-63
2024/04/07 08:50:52;;;;;;;;;;;26.60;39.10;;;;;;5078138;28;19932;-61
2024/04/07 08:53:19;;;;;;;;;;;26.60;39.10;;;;;;5078425;28;19932;-62
2024/04/07 08:55:45;;;;;;;;;;;26.70;39.10;;;;;;5078284;28;19932;-63
2024/04/07 08:58:14;;;;;;;;;;;26.70;39.00;;;;;;5077779;28;19932;-62
2024/04/07 09:00:43;;;;;;;;;;;26.70;39.10;;;;;;5078075;28;19932;-62
2024/04/07 09:03:09;;;;;;;;;;;26.70;39.10;;;;;;5076768;28;19930;-62
2024/04/07 09:05:36;;;;;;;;;;;26.80;39.10;;;;;;5074696;28;19924;-62
2024/04/07 09:08:02;;;;;;;;;;;26.80;39.00;;;;;;5075168;28;19939;-63
2024/04/07 09:10:28;;;;;;;;;;;26.80;39.00;;;;;;5074877;28;20286;-62
2024/04/07 09:12:53;;;;;;;;;;;26.80;39.00;;;;;;5075018;28;19924;-62
2024/04/07 09:15:19;;;;;;;;;;;26.80;39.10;;;;;;5074738;28;19931;-62
2024/04/07 09:17:45;;;;;;;;;;;26.80;39.10;;;;;;5074733;28;20027;-63
2024/04/07 09:20:18;;;;;;;;;;;26.80;39.10;;;;;;5074988;28;19925;-63
2024/04/07 09:22:45;;;;;;;;;;;26.90;39.20;;;;;;5074272;28;19931;-62
2024/04/07 09:25:11;;;;;;;;;;;26.80;39.10;;;;;;5048216;28;19932;-62
2024/04/07 09:27:37;;;;;;;;;;;26.90;39.30;;;;;;5034684;28;20282;-62
2024/04/07 09:30:07;;;;;;;;;;;26.90;39.30;;;;;;5034735;28;19979;-62
2024/04/07 09:32:33;;;;;;;;;;;26.90;39.30;;;;;;5034576;28;19936;-62
2024/04/07 09:34:59;;;;;;;;;;;26.90;39.30;;;;;;5034698;28;20286;-62
2024/04/07 09:37:25;;;;;;;;;;;26.90;39.30;;;;;;5034065;28;19925;-63
2024/04/07 09:39:51;;;;;;;;;;;26.90;39.30;;;;;;5034599;28;19925;-63
2024/04/07 09:42:22;;;;;;;;;;;26.90;39.30;;;;;;5034051;28;19988;-61
2024/04/07 09:44:53;;;;;;;;;;;26.90;39.40;;;;;;5034111;28;19932;-61
2024/04/07 09:47:20;;;;;;;;;;;26.90;39.40;;;;;;5034276;28;20294;-61
2024/04/07 09:49:49;;;;;;;;;;;26.90;39.40;;;;;;5017959;28;19979;-62
2024/04/07 09:52:18;;;;;;;;;;;26.90;39.50;;;;;;5033486;28;19925;-61
2024/04/07 09:54:48;;;;;;;;;;;27.00;39.50;;;;;;5034333;28;20310;-62
2024/04/07 09:57:15;;;;;;;;;;;27.00;39.40;;;;;;5034059;28;20290;-61
2024/04/07 09:59:42;;;;;;;;;;;27.00;39.40;;;;;;5017759;28;19925;-59
2024/04/07 10:02:09;;;;;;;;;;;27.00;39.30;;;;;;5033521;28;19932;-59
2024/04/07 10:04:36;;;;;;;;;;;27.10;39.30;;;;;;5033887;28;19988;-59
2024/04/07 10:07:02;;;;;;;;;;;27.10;39.30;;;;;;5033555;28;20287;-60
2024/04/07 10:09:28;;;;;;;;;;;27.10;39.30;;;;;;5038589;28;19929;-60
2024/04/07 10:11:54;;;;;;;;;;;27.10;39.20;;;;;;5052526;28;19924;-61
2024/04/07 10:14:20;;;;;;;;;;;27.10;39.20;;;;;;5053546;28;20397;-60
2024/04/07 10:16:49;;;;;;;;;;;27.10;39.20;;;;;;5053501;28;19925;-60
2024/04/07 10:19:15;;;;;;;;;;;27.10;39.20;;;;;;5053239;28;19932;-59
2024/04/07 10:21:41;;;;;;;;;;;27.20;39.20;;;;;;5052876;28;19925;-62
2024/04/07 10:24:07;;;;;;;;;;;27.20;39.20;;;;;;5053693;28;19924;-63
2024/04/07 10:26:33;;;;;;;;;;;27.10;39.20;;;;;;5053445;28;19952;-63
2024/04/07 10:28:59;;;;;;;;;;;27.20;39.30;;;;;;5053573;28;19924;-64
2024/04/07 10:31:26;;;;;;;;;;;27.20;39.30;;;;;;5053379;28;19925;-63
2024/04/07 10:33:52;;;;;;;;;;;27.20;39.20;;;;;;5053258;28;19925;-63
2024/04/07 10:36:20;;;;;;;;;;;27.20;39.20;;;;;;5053085;28;19971;-63
2024/04/07 10:38:59;;;;;;;;;;;27.20;39.20;;;;;;5036600;28;19929;-63
2024/04/07 10:41:26;;;;;;;;;;;27.30;39.20;;;;;;5052981;28;20401;-62
2024/04/07 10:43:52;;;;;;;;;;;27.30;39.20;;;;;;5053148;28;19924;-63
2024/04/07 10:46:19;;;;;;;;;;;27.30;39.10;;;;;;5052886;28;19925;-63
2024/04/07 10:48:45;;;;;;;;;;;27.30;39.10;;;;;;5052715;28;19986;-63
2024/04/07 10:51:12;;;;;;;;;;;27.30;39.20;;;;;;5052912;28;19925;-62
2024/04/07 10:53:39;;;;;;;;;;;27.30;39.20;;;;;;5036501;28;19932;-63
2024/04/07 10:56:05;;;;;;;;;;;27.30;39.20;;;;;;5052763;28;19932;-63
2024/04/07 10:58:30;;;;;;;;;;;27.30;39.20;;;;;;5052947;28;20007;-63
2024/04/07 11:00:56;;;;;;;;;;;27.30;39.30;;;;;;5052760;28;20310;-63
2024/04/07 11:03:22;;;;;;;;;;;27.30;39.20;;;;;;5052856;28;19928;-63
2024/04/07 11:05:49;;;;;;;;;;;27.30;39.10;;;;;;5052667;28;20476;-63
2024/04/07 11:08:15;;;;;;;;;;;27.30;39.10;;;;;;5052771;28;19924;-63
2024/04/07 11:10:40;;;;;;;;;;;27.40;39.20;;;;;;5052796;28;19925;-63
2024/04/07 11:13:06;;;;;;;;;;;27.40;39.10;;;;;;5052337;28;19989;-63
2024/04/07 11:15:32;;;;;;;;;;;27.40;39.00;;;;;;5052723;28;19928;-63
2024/04/07 11:17:59;;;;;;;;;;;27.40;39.00;;;;;;5052561;28;19924;-63
2024/04/07 11:20:25;;;;;;;;;;;27.40;39.00;;;;;;5052672;28;19929;-63
2024/04/07 11:22:51;;;;;;;;;;;27.40;38.90;;;;;;5052516;28;19948;-63
2024/04/07 11:25:18;;;;;;;;;;;27.40;38.90;;;;;;5052699;28;20313;-63
2024/04/07 11:27:44;;;;;;;;;;;27.40;38.90;;;;;;5051301;28;19934;-63
2024/04/07 11:30:10;;;;;;;;;;;27.40;38.80;;;;;;5052323;28;19929;-63
2024/04/07 11:32:36;;;;;;;;;;;27.40;38.80;;;;;;5052022;28;19947;-63
2024/04/07 11:35:03;;;;;;;;;;;27.40;38.80;;;;;;5052607;28;20290;-63
2024/04/07 11:37:29;;;;;;;;;;;27.40;38.80;;;;;;5035657;28;20002;-63
2024/04/07 11:39:55;;;;;;;;;;;27.40;38.80;;;;;;5052271;28;20386;-63
2024/04/07 11:42:24;;;;;;;;;;;27.40;38.80;;;;;;5051898;28;19931;-64
2024/04/07 11:44:50;;;;;;;;;;;27.40;38.70;;;;;;5052350;28;19925;-63
2024/04/07 11:47:16;;;;;;;;;;;27.40;38.80;;;;;;5051374;28;20274;-63
2024/04/07 11:49:43;;;;;;;;;;;27.40;38.70;;;;;;5035474;28;19931;-63
2024/04/07 11:52:10;;;;;;;;;;;27.50;38.80;;;;;;5051741;28;19925;-65
2024/04/07 11:54:35;;;;;;;;;;;27.50;38.70;;;;;;5052007;28;19932;-63
2024/04/07 11:57:01;;;;;;;;;;;27.50;38.70;;;;;;5051793;28;19960;-63
2024/04/07 11:59:27;;;;;;;;;;;27.50;38.70;;;;;;5052408;28;19928;-63
2024/04/07 12:01:53;;;;;;;;;;;27.40;38.60;;;;;;5051880;28;19925;-63
2024/04/07 12:04:19;;;;;;;;;;;27.50;38.70;;;;;;5052072;28;19925;-63
2024/04/07 12:06:45;;;;;;;;;;;27.50;38.70;;;;;;5052064;28;20404;-63
2024/04/07 12:09:10;;;;;;;;;;;27.50;38.70;;;;;;5051888;28;19932;-63
2024/04/07 12:11:36;;;;;;;;;;;27.50;38.60;;;;;;5051438;28;20508;-63
2024/04/07 12:14:02;;;;;;;;;;;27.50;38.60;;;;;;5051806;28;20078;-63
2024/04/07 12:16:28;;;;;;;;;;;27.50;38.60;;;;;;5051623;28;19970;-63
2024/04/07 12:18:54;;;;;;;;;;;27.50;38.50;;;;;;5051842;28;19979;-63
2024/04/07 12:21:20;;;;;;;;;;;27.50;38.50;;;;;;5051642;28;19940;-63
2024/04/07 12:23:46;;;;;;;;;;;27.50;38.50;;;;;;5051627;28;19933;-63
2024/04/07 12:26:12;;;;;;;;;;;27.60;38.60;;;;;;5052008;28;20016;-62
2024/04/07 12:28:38;;;;;;;;;;;27.60;38.60;;;;;;5051476;28;19933;-62
2024/04/07 12:31:04;;;;;;;;;;;27.60;38.60;;;;;;5051909;28;19925;-63
2024/04/07 12:33:29;;;;;;;;;;;27.60;38.60;;;;;;5050794;28;20328;-63
2024/04/07 12:35:55;;;;;;;;;;;27.60;38.60;;;;;;5051173;28;19925;-63
2024/04/07 12:38:21;;;;;;;;;;;27.60;38.60;;;;;;5053202;28;20102;-63
2024/04/07 12:40:47;;;;;;;;;;;27.60;38.60;;;;;;5055453;28;19929;-63
2024/04/07 12:43:13;;;;;;;;;;;27.60;38.50;;;;;;5053634;28;19928;-63
2024/04/07 12:45:39;;;;;;;;;;;27.60;38.60;;;;;;5055614;28;19931;-63
2024/04/07 12:48:15;;;;;;;;;;;27.70;38.70;;;;;;5054565;28;19925;-63
2024/04/07 12:50:41;;;;;;;;;;;27.60;38.60;;;;;;5055029;28;19924;-63
2024/04/07 12:53:07;;;;;;;;;;;27.70;38.70;;;;;;5038590;28;20015;-63
2024/04/07 12:55:32;;;;;;;;;;;27.70;38.60;;;;;;5054324;28;20382;-62
2024/04/07 12:57:58;;;;;;;;;;;27.70;38.60;;;;;;5038062;28;19928;-63
2024/04/07 13:00:27;;;;;;;;;;;27.70;38.70;;;;;;5054913;28;19928;-63
2024/04/07 13:02:53;;;;;;;;;;;27.70;38.70;;;;;;5054867;28;19948;-63
2024/04/07 13:05:19;;;;;;;;;;;27.70;38.70;;;;;;5038576;28;19924;-63
2024/04/07 13:07:45;;;;;;;;;;;27.70;38.70;;;;;;5054787;28;19970;-63
2024/04/07 13:10:11;;;;;;;;;;;27.70;38.80;;;;;;5055145;28;20321;-63
2024/04/07 13:12:36;;;;;;;;;;;27.70;38.80;;;;;;5054801;28;20343;-63
2024/04/07 13:15:04;;;;;;;;;;;27.70;38.80;;;;;;5054974;28;20317;-62
2024/04/07 13:17:29;;;;;;;;;;;27.70;38.80;;;;;;5054883;28;19974;-63
2024/04/07 13:19:55;;;;;;;;;;;27.70;38.70;;;;;;5054865;28;19928;-63
2024/04/07 13:22:21;;;;;;;;;;;27.70;38.70;;;;;;5054301;28;19948;-63
2024/04/07 13:24:47;;;;;;;;;;;27.70;38.70;;;;;;5054549;28;19932;-63
2024/04/07 13:27:13;;;;;;;;;;;27.80;38.70;;;;;;5054407;28;20259;-63
2024/04/07 13:29:39;;;;;;;;;;;27.80;38.80;;;;;;5055139;28;19940;-63
2024/04/07 13:32:07;;;;;;;;;;;27.80;38.70;;;;;;5054606;28;19924;-63
2024/04/07 13:34:33;;;;;;;;;;;27.80;38.70;;;;;;5054380;28;19929;-63
2024/04/07 13:36:58;;;;;;;;;;;27.80;38.60;;;;;;5053846;28;19928;-63
2024/04/07 13:39:26;;;;;;;;;;;27.80;38.60;;;;;;5054617;28;20023;-63
2024/04/07 13:41:53;;;;;;;;;;;27.80;38.60;;;;;;5054388;28;19932;-63
2024/04/07 13:44:19;;;;;;;;;;;27.80;38.60;;;;;;5037628;28;19932;-63
2024/04/07 13:46:48;;;;;;;;;;;27.80;38.50;;;;;;5054083;28;20332;-63
2024/04/07 13:49:14;;;;;;;;;;;27.80;38.40;;;;;;5053981;28;19929;-63
2024/04/07 13:51:39;;;;;;;;;;;27.80;38.40;;;;;;5054083;28;20417;-63
2024/04/07 13:54:05;;;;;;;;;;;27.80;38.30;;;;;;5053993;28;19925;-63
2024/04/07 13:56:31;;;;;;;;;;;27.80;38.30;;;;;;5053961;28;19978;-63
2024/04/07 13:58:57;;;;;;;;;;;27.80;38.30;;;;;;5054008;28;19932;-63
2024/04/07 14:01:23;;;;;;;;;;;27.80;38.20;;;;;;5054131;28;19930;-63
2024/04/07 14:03:49;;;;;;;;;;;27.80;38.20;;;;;;5053085;28;20464;-63
2024/04/07 14:06:15;;;;;;;;;;;27.80;38.20;;;;;;5053945;28;19932;-63
2024/04/07 14:08:40;;;;;;;;;;;27.80;38.10;;;;;;5053386;28;19924;-63
2024/04/07 14:11:06;;;;;;;;;;;27.80;38.10;;;;;;5053719;28;20286;-63
2024/04/07 14:13:32;;;;;;;;;;;27.80;38.10;;;;;;5053433;28;19940;-63